createdAt,value
2022-08-21T00:00:34.688Z,12.58
2022-08-21T00:01:34.665Z,12.57
2022-08-21T00:02:37.720Z,12.54
2022-08-21T00:03:37.708Z,12.55
2022-08-21T00:04:34.626Z,12.53
2022-08-21T00:05:34.617Z,12.47
2022-08-21T00:06:34.598Z,12.45
2022-08-21T00:07:34.623Z,12.40
2022-08-21T00:08:34.578Z,12.36
2022-08-21T00:09:34.556Z,12.31
2022-08-21T00:10:35.314Z,12.28
2022-08-21T00:11:34.583Z,12.25
2022-08-21T00:12:34.550Z,12.27
2022-08-21T00:13:34.500Z,12.25
2022-08-21T00:14:34.492Z,12.27
2022-08-21T00:15:35.241Z,12.28
2022-08-21T00:16:34.495Z,12.28
2022-08-21T00:17:34.482Z,12.28
2022-08-21T00:18:34.441Z,12.28
2022-08-21T00:19:34.421Z,12.27
2022-08-21T00:20:35.174Z,12.27
2022-08-21T00:21:34.424Z,12.24
2022-08-21T00:22:37.427Z,12.22
2022-08-21T00:23:37.395Z,12.21
2022-08-21T00:24:34.415Z,12.17
2022-08-21T00:25:34.355Z,12.13
2022-08-21T00:26:34.380Z,12.10
2022-08-21T00:27:34.316Z,12.09
2022-08-21T00:28:34.314Z,12.07
2022-08-21T00:29:34.308Z,12.07
2022-08-21T00:30:35.025Z,12.04
2022-08-21T00:31:34.281Z,12.07
2022-08-21T00:32:34.257Z,12.09
2022-08-21T00:33:34.279Z,12.10
2022-08-21T00:34:34.232Z,12.15
2022-08-21T00:35:34.208Z,12.17
2022-08-21T00:36:34.188Z,12.17
2022-08-21T00:37:35.308Z,12.17
2022-08-21T00:38:34.169Z,12.17
2022-08-21T00:39:34.215Z,12.17
2022-08-21T00:40:34.137Z,12.17
2022-08-21T00:41:38.661Z,12.17
2022-08-21T00:42:37.113Z,12.15
2022-08-21T00:43:37.123Z,12.18
2022-08-21T00:44:34.109Z,12.17
2022-08-21T00:45:34.062Z,12.18
2022-08-21T00:46:34.052Z,12.20
2022-08-21T00:47:34.047Z,12.22
2022-08-21T00:48:34.023Z,12.21
2022-08-21T00:49:34.074Z,12.20
2022-08-21T00:50:34.004Z,12.22
2022-08-21T00:51:38.192Z,12.22
2022-08-21T00:52:33.973Z,12.22
2022-08-21T00:53:33.954Z,12.22
2022-08-21T00:54:33.952Z,12.22
2022-08-21T00:55:33.976Z,12.22
2022-08-21T00:56:33.926Z,12.22
2022-08-21T00:57:33.916Z,12.22
2022-08-21T00:58:33.898Z,12.22
2022-08-21T00:59:33.877Z,12.24
2022-08-21T01:00:34.018Z,12.22
2022-08-21T01:01:33.889Z,12.21
2022-08-21T01:02:36.848Z,12.22
2022-08-21T01:03:36.835Z,12.25
2022-08-21T01:04:33.809Z,12.21
2022-08-21T01:05:33.799Z,12.22
2022-08-21T01:06:33.839Z,12.22
2022-08-21T01:07:33.771Z,12.22
2022-08-21T01:08:33.752Z,12.21
2022-08-21T01:09:33.741Z,12.21
2022-08-21T01:10:33.755Z,12.20
2022-08-21T01:11:33.718Z,12.15
2022-08-21T01:12:33.722Z,12.10
2022-08-21T01:13:33.691Z,12.07
2022-08-21T01:14:33.685Z,12.04
2022-08-21T01:15:33.664Z,12.03
2022-08-21T01:16:33.652Z,12.00
2022-08-21T01:17:33.693Z,12.02
2022-08-21T01:18:33.622Z,12.02
2022-08-21T01:19:33.603Z,12.02
2022-08-21T01:20:33.594Z,12.00
2022-08-21T01:21:33.585Z,12.03
2022-08-21T01:22:36.634Z,12.02
2022-08-21T01:23:36.564Z,12.06
2022-08-21T01:24:33.536Z,12.04
2022-08-21T01:25:33.529Z,12.03
2022-08-21T01:26:34.114Z,12.04
2022-08-21T01:27:33.496Z,12.06
2022-08-21T01:28:33.516Z,12.06
2022-08-21T01:29:33.468Z,12.07
2022-08-21T01:30:33.458Z,12.07
2022-08-21T01:31:33.446Z,12.07
2022-08-21T01:32:33.429Z,12.09
2022-08-21T01:33:33.453Z,12.09
2022-08-21T01:34:33.429Z,12.09
2022-08-21T01:35:33.392Z,12.10
2022-08-21T01:36:33.379Z,12.10
2022-08-21T01:37:33.370Z,12.10
2022-08-21T01:38:33.371Z,12.12
2022-08-21T01:39:33.338Z,12.07
2022-08-21T01:40:33.329Z,12.07
2022-08-21T01:41:33.309Z,12.06
2022-08-21T01:42:36.307Z,12.04
2022-08-21T01:43:39.467Z,12.03
2022-08-21T01:44:33.263Z,12.00
2022-08-21T01:45:33.264Z,12.00
2022-08-21T01:46:33.244Z,11.99
2022-08-21T01:47:33.223Z,11.97
2022-08-21T01:48:33.212Z,11.97
2022-08-21T01:49:33.224Z,11.99
2022-08-21T01:50:33.191Z,11.97
2022-08-21T01:51:33.204Z,11.97
2022-08-21T01:52:33.156Z,11.94
2022-08-21T01:53:33.734Z,11.94
2022-08-21T01:54:33.126Z,11.91
2022-08-21T01:55:33.119Z,11.90
2022-08-21T01:56:33.115Z,11.87
2022-08-21T01:57:33.116Z,11.84
2022-08-21T01:58:33.133Z,11.84
2022-08-21T01:59:33.065Z,11.80
2022-08-21T02:00:33.068Z,11.80
2022-08-21T02:01:33.061Z,11.78
2022-08-21T02:02:36.036Z,11.77
2022-08-21T02:03:36.442Z,11.77
2022-08-21T02:04:33.021Z,11.75
2022-08-21T02:05:32.980Z,11.75
2022-08-21T02:06:32.969Z,11.77
2022-08-21T02:07:32.971Z,11.77
2022-08-21T02:08:32.942Z,11.80
2022-08-21T02:09:32.959Z,11.80
2022-08-21T02:10:32.911Z,11.81
2022-08-21T02:11:32.992Z,11.81
2022-08-21T02:12:32.890Z,11.80
2022-08-21T02:13:32.872Z,11.83
2022-08-21T02:14:33.217Z,11.84
2022-08-21T02:15:32.835Z,11.83
2022-08-21T02:16:32.834Z,11.86
2022-08-21T02:17:32.851Z,11.84
2022-08-21T02:18:32.804Z,11.87
2022-08-21T02:19:39.583Z,11.86
2022-08-21T02:20:33.825Z,11.86
2022-08-21T02:21:32.764Z,11.87
2022-08-21T02:22:35.754Z,11.88
2022-08-21T02:23:35.748Z,11.88
2022-08-21T02:24:32.724Z,11.86
2022-08-21T02:25:32.707Z,11.86
2022-08-21T02:26:32.725Z,11.86
2022-08-21T02:27:32.788Z,11.87
2022-08-21T02:28:33.667Z,11.84
2022-08-21T02:29:32.648Z,11.86
2022-08-21T02:30:32.648Z,11.86
2022-08-21T02:31:32.629Z,11.87
2022-08-21T02:32:32.624Z,11.87
2022-08-21T02:33:32.636Z,11.86
2022-08-21T02:34:32.589Z,11.86
2022-08-21T02:35:32.597Z,11.86
2022-08-21T02:36:32.579Z,11.87
2022-08-21T02:37:32.555Z,11.87
2022-08-21T02:38:32.624Z,11.87
2022-08-21T02:39:32.531Z,11.87
2022-08-21T02:40:32.521Z,11.87
2022-08-21T02:41:32.493Z,11.88
2022-08-21T02:42:35.486Z,11.87
2022-08-21T02:43:35.543Z,11.90
2022-08-21T02:44:34.372Z,11.88
2022-08-21T02:45:32.441Z,11.87
2022-08-21T02:46:32.423Z,11.87
2022-08-21T02:47:32.426Z,11.88
2022-08-21T02:48:32.393Z,11.88
2022-08-21T02:49:32.576Z,11.86
2022-08-21T02:50:32.365Z,11.86
2022-08-21T02:51:32.356Z,11.81
2022-08-21T02:52:32.336Z,11.81
2022-08-21T02:53:32.329Z,11.80
2022-08-21T02:54:32.326Z,11.81
2022-08-21T02:55:32.334Z,11.78
2022-08-21T02:56:32.298Z,11.78
2022-08-21T02:57:32.267Z,11.78
2022-08-21T02:58:32.266Z,11.77
2022-08-21T02:59:32.267Z,11.77
2022-08-21T03:00:32.228Z,11.77
2022-08-21T03:01:32.298Z,11.75
2022-08-21T03:02:35.214Z,11.75
2022-08-21T03:03:35.212Z,11.78
2022-08-21T03:04:32.329Z,11.75
2022-08-21T03:05:32.165Z,11.73
2022-08-21T03:06:32.148Z,11.73
2022-08-21T03:07:32.152Z,11.73
2022-08-21T03:08:32.122Z,11.73
2022-08-21T03:09:32.110Z,11.73
2022-08-21T03:10:32.126Z,11.72
2022-08-21T03:11:32.081Z,11.72
2022-08-21T03:12:32.061Z,11.70
2022-08-21T03:13:32.073Z,11.68
2022-08-21T03:14:32.112Z,11.63
2022-08-21T03:15:32.023Z,11.63
2022-08-21T03:16:34.861Z,11.60
2022-08-21T03:17:31.994Z,11.59
2022-08-21T03:18:31.987Z,11.55
2022-08-21T03:19:31.975Z,11.51
2022-08-21T03:20:31.994Z,11.50
2022-08-21T03:21:31.955Z,11.47
2022-08-21T03:22:34.935Z,11.44
2022-08-21T03:23:34.949Z,11.47
2022-08-21T03:24:31.972Z,11.44
2022-08-21T03:25:39.777Z,11.44
2022-08-21T03:26:32.876Z,11.45
2022-08-21T03:27:31.861Z,11.44
2022-08-21T03:28:31.845Z,11.45
2022-08-21T03:29:31.858Z,11.48
2022-08-21T03:30:31.848Z,11.48
2022-08-21T03:31:31.813Z,11.51
2022-08-21T03:32:31.791Z,11.55
2022-08-21T03:33:31.779Z,11.59
2022-08-21T03:34:31.766Z,11.63
2022-08-21T03:35:31.755Z,11.66
2022-08-21T03:36:31.760Z,11.72
2022-08-21T03:37:31.730Z,11.75
2022-08-21T03:38:31.710Z,11.80
2022-08-21T03:39:31.698Z,11.84
2022-08-21T03:40:31.682Z,11.88
2022-08-21T03:41:31.702Z,11.94
2022-08-21T03:42:34.652Z,11.97
2022-08-21T03:43:34.653Z,12.03
2022-08-21T03:44:31.624Z,12.04
2022-08-21T03:45:31.612Z,12.09
2022-08-21T03:46:31.640Z,12.12
2022-08-21T03:47:31.584Z,12.13
2022-08-21T03:48:31.573Z,12.18
2022-08-21T03:49:31.555Z,12.17
2022-08-21T03:50:31.547Z,12.18
2022-08-21T03:51:31.695Z,12.20
2022-08-21T03:52:31.533Z,12.21
2022-08-21T03:53:31.512Z,12.22
2022-08-21T03:54:31.485Z,12.22
2022-08-21T03:55:31.475Z,12.25
2022-08-21T03:56:31.482Z,12.25
2022-08-21T03:57:31.505Z,12.28
2022-08-21T03:58:31.435Z,12.28
2022-08-21T03:59:31.417Z,12.28
2022-08-21T04:00:31.408Z,12.31
2022-08-21T04:01:31.407Z,12.35
2022-08-21T04:02:34.470Z,12.35
2022-08-21T04:03:34.398Z,12.37
2022-08-21T04:04:31.351Z,12.36
2022-08-21T04:05:31.340Z,12.36
2022-08-21T04:06:35.783Z,12.37
2022-08-21T04:07:32.327Z,12.37
2022-08-21T04:08:31.321Z,12.39
2022-08-21T04:09:31.292Z,12.39
2022-08-21T04:10:31.273Z,12.37
2022-08-21T04:11:31.272Z,12.36
2022-08-21T04:12:31.241Z,12.32
2022-08-21T04:13:31.251Z,12.28
2022-08-21T04:14:31.212Z,12.27
2022-08-21T04:15:31.213Z,12.25
2022-08-21T04:16:31.198Z,12.27
2022-08-21T04:17:31.211Z,12.25
2022-08-21T04:18:31.183Z,12.28
2022-08-21T04:19:31.146Z,12.29
2022-08-21T04:20:31.144Z,12.31
2022-08-21T04:21:31.123Z,12.32
2022-08-21T04:22:34.106Z,12.35
2022-08-21T04:23:34.146Z,12.37
2022-08-21T04:24:31.075Z,12.36
2022-08-21T04:25:31.066Z,12.35
2022-08-21T04:26:31.063Z,12.37
2022-08-21T04:27:31.045Z,12.37
2022-08-21T04:28:31.281Z,12.36
2022-08-21T04:29:31.019Z,12.37
2022-08-21T04:30:31.057Z,12.36
2022-08-21T04:31:30.986Z,12.35
2022-08-21T04:32:30.969Z,12.36
2022-08-21T04:33:30.959Z,12.35
2022-08-21T04:34:30.939Z,12.36
2022-08-21T04:35:30.945Z,12.35
2022-08-21T04:36:30.939Z,12.35
2022-08-21T04:37:42.297Z,12.35
2022-08-21T04:38:36.487Z,12.37
2022-08-21T04:39:31.876Z,12.37
2022-08-21T04:40:31.005Z,12.36
2022-08-21T04:41:30.909Z,12.39
2022-08-21T04:42:33.838Z,12.36
2022-08-21T04:43:33.841Z,12.40
2022-08-21T04:44:30.843Z,12.39
2022-08-21T04:45:30.796Z,12.40
2022-08-21T04:46:30.778Z,12.42
2022-08-21T04:47:41.802Z,12.45
2022-08-21T04:48:31.780Z,12.46
2022-08-21T04:49:30.752Z,12.49
2022-08-21T04:50:30.729Z,12.57
2022-08-21T04:51:30.917Z,12.76
2022-08-21T04:52:30.702Z,12.93
2022-08-21T04:53:30.727Z,13.08
2022-08-21T04:54:30.671Z,13.12
2022-08-21T04:55:30.661Z,13.09
2022-08-21T04:56:30.649Z,13.08
2022-08-21T04:57:39.724Z,13.05
2022-08-21T04:58:31.650Z,13.22
2022-08-21T04:59:30.609Z,13.47
2022-08-21T05:00:30.602Z,13.79
2022-08-21T05:01:30.590Z,14.14
2022-08-21T05:02:33.564Z,14.43
2022-08-21T05:03:33.601Z,14.70
2022-08-21T05:04:30.533Z,14.99
2022-08-21T05:05:30.532Z,15.22
2022-08-21T05:06:30.511Z,15.51
2022-08-21T05:07:42.687Z,15.72
2022-08-21T05:08:31.491Z,15.98
2022-08-21T05:09:30.501Z,16.20
2022-08-21T05:10:30.476Z,16.43
2022-08-21T05:11:30.446Z,16.64
2022-08-21T05:12:30.436Z,16.87
2022-08-21T05:13:30.416Z,17.14
2022-08-21T05:14:30.397Z,17.33
2022-08-21T05:15:30.467Z,17.56
2022-08-21T05:16:37.227Z,17.80
2022-08-21T05:17:31.367Z,17.95
2022-08-21T05:18:30.356Z,18.01
2022-08-21T05:19:30.331Z,18.20
2022-08-21T05:20:30.320Z,18.38
2022-08-21T05:21:30.373Z,18.58
2022-08-21T05:22:33.287Z,18.71
2022-08-21T05:23:33.329Z,18.89
2022-08-21T05:24:30.258Z,19.07
2022-08-21T05:25:30.250Z,19.27
2022-08-21T05:26:30.233Z,19.49
2022-08-21T05:27:30.264Z,19.64
2022-08-21T05:28:30.239Z,19.81
2022-08-21T05:29:30.205Z,19.95
2022-08-21T05:30:30.184Z,20.13
2022-08-21T05:31:30.175Z,20.31
2022-08-21T05:32:30.165Z,20.43
2022-08-21T05:33:30.176Z,20.52
2022-08-21T05:34:30.135Z,20.59
2022-08-21T05:35:30.132Z,20.72
2022-08-21T05:36:30.106Z,20.88
2022-08-21T05:37:30.095Z,20.97
2022-08-21T05:38:30.098Z,21.12
2022-08-21T05:39:30.064Z,21.15
2022-08-21T05:40:31.095Z,21.12
2022-08-21T05:41:30.028Z,21.24
2022-08-21T05:42:33.034Z,21.35
2022-08-21T05:43:33.053Z,21.46
2022-08-21T05:44:29.979Z,21.50
2022-08-21T05:45:43.115Z,21.55
2022-08-21T05:46:30.974Z,21.66
2022-08-21T05:47:29.951Z,21.72
2022-08-21T05:48:29.965Z,21.76
2022-08-21T05:49:29.922Z,21.82
2022-08-21T05:50:33.544Z,21.88
2022-08-21T05:51:29.905Z,21.82
2022-08-21T05:52:29.919Z,21.91
2022-08-21T05:53:29.862Z,21.91
2022-08-21T05:54:29.865Z,21.88
2022-08-21T05:55:29.841Z,21.85
2022-08-21T05:56:29.894Z,21.96
2022-08-21T05:57:29.830Z,22.00
2022-08-21T05:58:29.795Z,22.00
2022-08-21T05:59:29.786Z,21.93
2022-08-21T06:00:29.800Z,21.91
2022-08-21T06:01:29.818Z,21.77
2022-08-21T06:02:32.807Z,21.61
2022-08-21T06:03:32.751Z,21.50
2022-08-21T06:04:29.716Z,21.30
2022-08-21T06:05:37.278Z,21.03
2022-08-21T06:06:30.687Z,20.56
2022-08-21T06:07:29.681Z,20.22
2022-08-21T06:08:29.713Z,20.00
2022-08-21T06:09:29.669Z,19.79
2022-08-21T06:10:29.640Z,19.56
2022-08-21T06:11:29.623Z,19.33
2022-08-21T06:12:29.621Z,19.11
2022-08-21T06:13:29.602Z,18.88
2022-08-21T06:14:29.612Z,18.66
2022-08-21T06:15:29.592Z,18.47
2022-08-21T06:16:29.553Z,18.33
2022-08-21T06:17:29.552Z,18.22
2022-08-21T06:18:29.581Z,18.07
2022-08-21T06:19:29.537Z,17.92
2022-08-21T06:20:29.504Z,17.83
2022-08-21T06:21:29.493Z,17.74
2022-08-21T06:22:32.526Z,17.65
2022-08-21T06:23:33.427Z,17.48
2022-08-21T06:24:29.456Z,17.42
2022-08-21T06:25:29.463Z,17.41
2022-08-21T06:26:29.433Z,17.39
2022-08-21T06:27:29.413Z,17.39
2022-08-21T06:28:29.405Z,17.39
2022-08-21T06:29:29.408Z,17.39
2022-08-21T06:30:30.378Z,17.39
2022-08-21T06:31:29.363Z,17.42
2022-08-21T06:32:29.347Z,17.39
2022-08-21T06:33:32.537Z,17.41
2022-08-21T06:34:29.351Z,17.41
2022-08-21T06:35:29.301Z,17.38
2022-08-21T06:36:29.291Z,17.39
2022-08-21T06:37:29.280Z,17.41
2022-08-21T06:38:29.302Z,17.38
2022-08-21T06:39:30.585Z,17.38
2022-08-21T06:40:29.946Z,17.39
2022-08-21T06:41:29.222Z,17.41
2022-08-21T06:42:32.214Z,17.42
2022-08-21T06:43:39.587Z,17.45
2022-08-21T06:44:30.174Z,17.45
2022-08-21T06:45:32.281Z,17.49
2022-08-21T06:46:29.150Z,17.52
2022-08-21T06:47:29.138Z,17.56
2022-08-21T06:48:29.138Z,17.59
2022-08-21T06:49:29.105Z,17.63
2022-08-21T06:50:29.087Z,17.65
2022-08-21T06:51:29.097Z,17.63
2022-08-21T06:52:29.067Z,17.65
2022-08-21T06:53:29.078Z,17.67
2022-08-21T06:54:29.057Z,17.67
2022-08-21T06:55:29.349Z,17.72
2022-08-21T06:56:29.061Z,17.76
2022-08-21T06:57:29.008Z,17.76
2022-08-21T06:58:28.971Z,17.79
2022-08-21T06:59:28.960Z,17.83
2022-08-21T07:00:28.957Z,17.86
2022-08-21T07:01:28.993Z,17.86
2022-08-21T07:02:31.961Z,17.83
2022-08-21T07:03:31.913Z,17.86
2022-08-21T07:04:28.896Z,17.87
2022-08-21T07:05:28.871Z,17.90
2022-08-21T07:06:28.866Z,18.00
2022-08-21T07:07:28.864Z,18.04
2022-08-21T07:08:28.868Z,18.08
2022-08-21T07:09:28.813Z,18.11
2022-08-21T07:10:28.804Z,18.16
2022-08-21T07:11:28.806Z,18.22
2022-08-21T07:12:28.776Z,18.25
2022-08-21T07:13:28.778Z,18.29
2022-08-21T07:14:28.751Z,18.33
2022-08-21T07:15:28.729Z,18.38
2022-08-21T07:16:28.724Z,18.43
2022-08-21T07:17:28.698Z,18.52
2022-08-21T07:18:28.729Z,18.59
2022-08-21T07:19:28.669Z,18.65
2022-08-21T07:20:28.666Z,18.71
2022-08-21T07:21:28.709Z,18.75
2022-08-21T07:22:31.631Z,18.75
2022-08-21T07:23:31.624Z,18.66
2022-08-21T07:24:28.602Z,18.70
2022-08-21T07:25:28.601Z,18.75
2022-08-21T07:26:28.573Z,18.83
2022-08-21T07:27:28.582Z,18.92
2022-08-21T07:28:28.579Z,19.02
2022-08-21T07:29:28.553Z,19.12
2022-08-21T07:30:28.514Z,19.19
2022-08-21T07:31:28.512Z,19.27
2022-08-21T07:32:28.485Z,19.31
2022-08-21T07:33:28.504Z,19.39
2022-08-21T07:34:28.469Z,19.41
2022-08-21T07:35:28.473Z,19.47
2022-08-21T07:36:28.438Z,19.51
2022-08-21T07:37:28.426Z,19.58
2022-08-21T07:38:28.437Z,19.62
2022-08-21T07:39:28.405Z,19.66
2022-08-21T07:40:28.380Z,19.67
2022-08-21T07:41:28.367Z,19.71
2022-08-21T07:42:31.356Z,19.77
2022-08-21T07:43:31.408Z,19.85
2022-08-21T07:44:28.350Z,19.88
2022-08-21T07:45:28.320Z,19.95
2022-08-21T07:46:28.309Z,20.03
2022-08-21T07:47:41.482Z,20.07
2022-08-21T07:48:29.279Z,20.10
2022-08-21T07:49:28.283Z,20.16
2022-08-21T07:50:28.243Z,20.18
2022-08-21T07:51:28.235Z,20.21
2022-08-21T07:52:28.242Z,20.25
2022-08-21T07:53:28.214Z,20.29
2022-08-21T07:54:33.999Z,20.32
2022-08-21T07:55:29.174Z,20.36
2022-08-21T07:56:28.161Z,20.37
2022-08-21T07:57:28.153Z,20.40
2022-08-21T07:58:28.147Z,20.41
2022-08-21T07:59:28.127Z,20.47
2022-08-21T08:00:28.147Z,20.52
2022-08-21T08:01:28.141Z,20.55
2022-08-21T08:02:31.095Z,20.59
2022-08-21T08:03:31.081Z,20.66
2022-08-21T08:04:28.064Z,20.69
2022-08-21T08:05:28.198Z,20.74
2022-08-21T08:06:28.029Z,20.78
2022-08-21T08:07:28.022Z,20.82
2022-08-21T08:08:28.000Z,20.85
2022-08-21T08:09:28.007Z,20.87
2022-08-21T08:10:27.979Z,20.92
2022-08-21T08:11:27.992Z,20.93
2022-08-21T08:12:27.951Z,20.93
2022-08-21T08:13:27.961Z,20.99
2022-08-21T08:14:31.337Z,21.06
2022-08-21T08:15:27.903Z,21.12
2022-08-21T08:16:29.408Z,21.18
2022-08-21T08:17:27.895Z,21.25
2022-08-21T08:18:27.913Z,21.33
2022-08-21T08:19:27.855Z,21.32
2022-08-21T08:20:27.896Z,21.36
2022-08-21T08:21:28.599Z,21.40
2022-08-21T08:22:30.833Z,21.43
2022-08-21T08:23:30.848Z,21.50
2022-08-21T08:24:27.796Z,21.51
2022-08-21T08:25:27.797Z,21.55
2022-08-21T08:26:30.245Z,21.62
2022-08-21T08:27:27.769Z,21.67
2022-08-21T08:28:27.738Z,21.73
2022-08-21T08:29:27.720Z,21.80
2022-08-21T08:30:31.258Z,21.77
2022-08-21T08:31:29.471Z,21.67
2022-08-21T08:32:27.701Z,21.57
2022-08-21T08:33:27.672Z,21.42
2022-08-21T08:34:27.682Z,21.42
2022-08-21T08:35:27.681Z,21.43
2022-08-21T08:36:29.110Z,21.39
2022-08-21T08:37:31.519Z,21.32
2022-08-21T08:38:28.604Z,21.33
2022-08-21T08:39:29.440Z,21.37
2022-08-21T08:40:27.583Z,21.33
2022-08-21T08:41:30.903Z,21.39
2022-08-21T08:42:33.051Z,21.50
2022-08-21T08:43:30.546Z,21.62
2022-08-21T08:44:27.529Z,21.60
2022-08-21T08:45:27.512Z,21.54
2022-08-21T08:46:28.246Z,21.60
2022-08-21T08:47:27.496Z,21.61
2022-08-21T08:48:27.480Z,21.69
2022-08-21T08:49:27.448Z,21.72
2022-08-21T08:50:27.441Z,21.75
2022-08-21T08:51:28.197Z,21.77
2022-08-21T08:52:27.449Z,21.83
2022-08-21T08:53:27.408Z,21.92
2022-08-21T08:54:27.400Z,22.02
2022-08-21T08:55:27.548Z,22.10
2022-08-21T08:56:28.132Z,22.17
2022-08-21T08:57:27.391Z,22.20
2022-08-21T08:58:27.335Z,22.26
2022-08-21T08:59:27.315Z,22.32
2022-08-21T09:00:27.304Z,22.39
2022-08-21T09:01:28.151Z,22.43
2022-08-21T09:02:30.367Z,22.44
2022-08-21T09:03:30.295Z,22.51
2022-08-21T09:04:27.264Z,22.53
2022-08-21T09:05:27.235Z,22.53
2022-08-21T09:06:27.995Z,22.59
2022-08-21T09:07:27.216Z,22.53
2022-08-21T09:08:27.237Z,22.57
2022-08-21T09:09:27.208Z,22.66
2022-08-21T09:10:27.178Z,22.63
2022-08-21T09:11:27.186Z,22.53
2022-08-21T09:12:27.146Z,22.35
2022-08-21T09:13:27.129Z,22.30
2022-08-21T09:14:27.302Z,22.32
2022-08-21T09:15:27.108Z,22.29
2022-08-21T09:16:27.864Z,22.32
2022-08-21T09:17:27.094Z,22.26
2022-08-21T09:18:27.062Z,22.35
2022-08-21T09:19:27.082Z,22.44
2022-08-21T09:20:27.032Z,22.47
2022-08-21T09:21:27.783Z,22.54
2022-08-21T09:22:30.023Z,22.63
2022-08-21T09:23:30.012Z,22.66
2022-08-21T09:24:27.053Z,22.63
2022-08-21T09:25:26.966Z,22.70
2022-08-21T09:26:26.956Z,22.73
2022-08-21T09:27:26.936Z,22.80
2022-08-21T09:28:26.926Z,22.83
2022-08-21T09:29:26.927Z,22.78
2022-08-21T09:30:26.926Z,22.80
2022-08-21T09:31:26.886Z,22.78
2022-08-21T09:32:36.623Z,22.84
2022-08-21T09:33:27.858Z,22.88
2022-08-21T09:34:26.871Z,22.99
2022-08-21T09:35:26.852Z,23.06
2022-08-21T09:36:26.813Z,23.03
2022-08-21T09:37:26.809Z,23.08
2022-08-21T09:38:26.801Z,23.12
2022-08-21T09:39:26.797Z,23.18
2022-08-21T09:40:26.838Z,23.24
2022-08-21T09:41:26.760Z,23.24
2022-08-21T09:42:29.732Z,23.32
2022-08-21T09:43:29.741Z,23.40
2022-08-21T09:44:26.727Z,23.48
2022-08-21T09:45:26.735Z,23.56
2022-08-21T09:46:26.685Z,23.59
2022-08-21T09:47:26.982Z,23.62
2022-08-21T09:48:27.157Z,23.65
2022-08-21T09:49:27.635Z,23.65
2022-08-21T09:50:26.638Z,23.69
2022-08-21T09:51:26.638Z,23.71
2022-08-21T09:52:26.657Z,23.78
2022-08-21T09:53:26.588Z,23.86
2022-08-21T09:54:26.575Z,23.80
2022-08-21T09:55:26.562Z,23.87
2022-08-21T09:56:26.558Z,23.91
2022-08-21T09:57:26.529Z,23.88
2022-08-21T09:58:26.570Z,23.84
2022-08-21T09:59:26.509Z,23.84
2022-08-21T10:00:26.500Z,23.87
2022-08-21T10:01:26.546Z,23.93
2022-08-21T10:02:29.464Z,23.96
2022-08-21T10:03:29.522Z,24.05
2022-08-21T10:04:26.444Z,24.08
2022-08-21T10:05:26.422Z,24.11
2022-08-21T10:06:26.413Z,24.18
2022-08-21T10:07:26.414Z,24.23
2022-08-21T10:08:26.393Z,24.30
2022-08-21T10:09:26.396Z,24.35
2022-08-21T10:10:26.378Z,24.38
2022-08-21T10:11:26.352Z,24.36
2022-08-21T10:12:26.353Z,24.39
2022-08-21T10:13:26.339Z,24.45
2022-08-21T10:14:26.382Z,24.50
2022-08-21T10:15:26.289Z,24.47
2022-08-21T10:16:26.277Z,24.47
2022-08-21T10:17:26.268Z,24.53
2022-08-21T10:18:26.274Z,24.55
2022-08-21T10:19:26.239Z,24.63
2022-08-21T10:20:26.284Z,24.68
2022-08-21T10:21:26.220Z,24.84
2022-08-21T10:22:29.208Z,24.89
2022-08-21T10:23:29.192Z,24.96
2022-08-21T10:24:31.230Z,24.92
2022-08-21T10:25:27.174Z,24.96
2022-08-21T10:26:26.149Z,25.07
2022-08-21T10:27:26.133Z,25.21
2022-08-21T10:28:26.125Z,25.36
2022-08-21T10:29:26.105Z,25.53
2022-08-21T10:30:26.124Z,25.65
2022-08-21T10:31:26.087Z,25.81
2022-08-21T10:32:26.784Z,25.93
2022-08-21T10:33:26.086Z,25.98
2022-08-21T10:34:26.047Z,25.83
2022-08-21T10:35:26.035Z,25.83
2022-08-21T10:36:26.018Z,25.63
2022-08-21T10:37:25.999Z,25.59
2022-08-21T10:38:52.599Z,25.38
2022-08-21T10:39:35.467Z,25.18
2022-08-21T10:40:27.000Z,25.03
2022-08-21T10:41:25.970Z,24.86
2022-08-21T10:42:29.020Z,24.95
2022-08-21T10:43:28.940Z,25.10
2022-08-21T10:44:25.949Z,25.18
2022-08-21T10:45:25.891Z,25.31
2022-08-21T10:46:25.879Z,25.47
2022-08-21T10:47:25.875Z,25.62
2022-08-21T10:48:25.866Z,25.60
2022-08-21T10:49:25.841Z,25.50
2022-08-21T10:50:25.884Z,25.22
2022-08-21T10:51:29.240Z,24.76
2022-08-21T10:52:25.820Z,24.16
2022-08-21T10:53:25.846Z,23.99
2022-08-21T10:54:25.775Z,24.05
2022-08-21T10:55:25.755Z,24.13
2022-08-21T10:56:25.780Z,24.18
2022-08-21T10:57:29.861Z,24.08
2022-08-21T10:58:26.729Z,24.02
2022-08-21T10:59:25.697Z,23.99
2022-08-21T11:00:25.828Z,24.02
2022-08-21T11:01:25.718Z,24.24
2022-08-21T11:02:28.715Z,24.40
2022-08-21T11:03:28.660Z,24.61
2022-08-21T11:04:25.677Z,24.85
2022-08-21T11:05:25.628Z,24.98
2022-08-21T11:06:25.640Z,25.06
2022-08-21T11:07:25.621Z,25.04
2022-08-21T11:08:26.644Z,24.99
2022-08-21T11:09:25.576Z,24.96
2022-08-21T11:10:25.722Z,25.07
2022-08-21T11:11:25.540Z,25.22
2022-08-21T11:12:25.726Z,25.33
2022-08-21T11:13:31.159Z,25.29
2022-08-21T11:14:26.542Z,25.38
2022-08-21T11:15:29.385Z,25.53
2022-08-21T11:16:25.496Z,25.69
2022-08-21T11:17:25.482Z,25.83
2022-08-21T11:18:25.485Z,25.96
2022-08-21T11:19:25.488Z,26.02
2022-08-21T11:20:25.477Z,26.02
2022-08-21T11:21:25.408Z,26.13
2022-08-21T11:22:28.390Z,25.93
2022-08-21T11:23:28.449Z,25.72
2022-08-21T11:24:25.368Z,25.65
2022-08-21T11:25:25.449Z,25.58
2022-08-21T11:26:26.340Z,25.63
2022-08-21T11:27:25.330Z,25.63
2022-08-21T11:28:25.310Z,25.51
2022-08-21T11:29:25.337Z,25.33
2022-08-21T11:30:25.313Z,25.14
2022-08-21T11:31:25.274Z,24.99
2022-08-21T11:32:25.262Z,24.84
2022-08-21T11:33:25.304Z,24.78
2022-08-21T11:34:25.247Z,24.76
2022-08-21T11:35:25.225Z,24.95
2022-08-21T11:36:25.219Z,25.11
2022-08-21T11:37:25.218Z,25.28
2022-08-21T11:38:25.209Z,25.40
2022-08-21T11:39:25.347Z,25.54
2022-08-21T11:40:25.209Z,25.65
2022-08-21T11:41:25.149Z,25.58
2022-08-21T11:42:28.136Z,25.51
2022-08-21T11:43:28.127Z,25.58
2022-08-21T11:44:25.121Z,25.43
2022-08-21T11:45:28.114Z,25.13
2022-08-21T11:46:25.071Z,24.78
2022-08-21T11:47:25.111Z,24.57
2022-08-21T11:48:25.071Z,24.28
2022-08-21T11:49:25.032Z,24.14
2022-08-21T11:50:34.292Z,24.01
2022-08-21T11:51:26.074Z,24.03
2022-08-21T11:52:24.994Z,23.95
2022-08-21T11:53:25.006Z,23.95
2022-08-21T11:54:24.984Z,24.08
2022-08-21T11:55:24.971Z,24.06
2022-08-21T11:56:24.940Z,24.06
2022-08-21T11:57:24.956Z,24.05
2022-08-21T11:58:24.906Z,24.08
2022-08-21T11:59:24.907Z,24.13
2022-08-21T12:00:24.899Z,24.14
2022-08-21T12:01:24.888Z,24.16
2022-08-21T12:02:27.896Z,24.17
2022-08-21T12:03:27.869Z,24.35
2022-08-21T12:04:26.228Z,24.29
2022-08-21T12:05:24.851Z,24.35
2022-08-21T12:06:24.811Z,24.54
2022-08-21T12:07:24.800Z,24.78
2022-08-21T12:08:24.799Z,24.95
2022-08-21T12:09:24.778Z,25.11
2022-08-21T12:10:24.813Z,25.28
2022-08-21T12:11:24.753Z,25.48
2022-08-21T12:12:25.744Z,25.53
2022-08-21T12:13:40.371Z,25.47
2022-08-21T12:14:25.702Z,25.46
2022-08-21T12:15:24.695Z,25.50
2022-08-21T12:16:24.708Z,25.54
2022-08-21T12:17:24.656Z,25.54
2022-08-21T12:18:24.644Z,25.60
2022-08-21T12:19:24.648Z,25.78
2022-08-21T12:20:24.667Z,25.93
2022-08-21T12:21:24.609Z,26.16
2022-08-21T12:22:27.591Z,26.41
2022-08-21T12:23:27.590Z,26.56
2022-08-21T12:24:24.570Z,26.31
2022-08-21T12:25:24.550Z,26.22
2022-08-21T12:26:24.598Z,26.23
2022-08-21T12:27:24.521Z,26.22
2022-08-21T12:28:24.509Z,26.18
2022-08-21T12:29:24.512Z,26.21
2022-08-21T12:30:25.795Z,26.16
2022-08-21T12:31:24.483Z,25.75
2022-08-21T12:32:24.473Z,25.47
2022-08-21T12:33:24.444Z,25.40
2022-08-21T12:34:24.441Z,25.36
2022-08-21T12:35:25.341Z,25.36
2022-08-21T12:36:24.407Z,25.22
2022-08-21T12:37:24.416Z,25.26
2022-08-21T12:38:24.378Z,25.50
2022-08-21T12:39:24.370Z,25.50
2022-08-21T12:40:24.445Z,25.50
2022-08-21T12:41:24.336Z,25.48
2022-08-21T12:42:27.380Z,25.50
2022-08-21T12:43:27.330Z,25.47
2022-08-21T12:44:24.300Z,25.41
2022-08-21T12:45:24.284Z,25.38
2022-08-21T12:46:24.268Z,25.25
2022-08-21T12:47:24.262Z,24.80
2022-08-21T12:48:24.879Z,24.65
2022-08-21T12:49:26.733Z,24.61
2022-08-21T12:50:24.216Z,24.60
2022-08-21T12:51:24.206Z,24.60
2022-08-21T12:52:24.195Z,24.74